createdAt,value
2023-03-24T00:00:47.842Z,13.20
2023-03-24T00:03:17.475Z,17.98
2023-03-24T00:05:45.388Z,15.63
2023-03-24T00:08:12.950Z,9.50
2023-03-24T00:10:42.821Z,14.23
2023-03-24T00:13:10.682Z,17.52
2023-03-24T00:15:38.276Z,17.23
2023-03-24T00:18:06.425Z,12.73
2023-03-24T00:20:34.035Z,11.63
2023-03-24T00:23:01.828Z,10.93
2023-03-24T00:25:36.603Z,9.25
2023-03-24T00:28:07.379Z,9.77
2023-03-24T00:30:35.659Z,18.40
2023-03-24T00:33:04.341Z,23.95
2023-03-24T00:35:32.256Z,13.70
2023-03-24T00:38:00.686Z,11.07
2023-03-24T00:40:28.459Z,16.63
2023-03-24T00:42:56.343Z,16.40
2023-03-24T00:45:25.582Z,17.67
2023-03-24T00:47:58.250Z,16.08
2023-03-24T00:50:27.397Z,16.80
2023-03-24T00:52:56.552Z,15.55
2023-03-24T00:55:24.199Z,12.82
2023-03-24T00:57:52.203Z,15.48
2023-03-24T01:00:26.342Z,16.60
2023-03-24T01:02:56.805Z,17.63
2023-03-24T01:05:30.013Z,13.70
2023-03-24T01:07:59.460Z,13.90
2023-03-24T01:10:27.877Z,15.07
2023-03-24T01:12:57.353Z,13.38
2023-03-24T01:15:31.271Z,14.63
2023-03-24T01:18:02.235Z,9.63
2023-03-24T01:20:35.755Z,7.10
2023-03-24T01:23:07.619Z,9.38
2023-03-24T01:25:37.330Z,10.15
2023-03-24T01:28:05.203Z,8.63
2023-03-24T01:30:32.963Z,9.57
2023-03-24T01:33:00.786Z,15.75
2023-03-24T01:35:29.504Z,10.20
2023-03-24T01:37:59.106Z,10.75
2023-03-24T01:40:31.369Z,9.68
2023-03-24T01:42:59.712Z,7.60
2023-03-24T01:45:39.917Z,11.07
2023-03-24T01:48:46.418Z,10.40
2023-03-24T01:51:26.134Z,11.73
2023-03-24T01:54:02.381Z,9.75
2023-03-24T01:56:35.495Z,12.40
2023-03-24T01:59:08.938Z,11.35
2023-03-24T02:01:45.730Z,8.00
2023-03-24T02:04:54.173Z,9.60
2023-03-24T02:07:36.753Z,9.32
2023-03-24T02:10:08.338Z,9.45
2023-03-24T02:12:37.065Z,9.80
2023-03-24T02:15:08.809Z,9.60
2023-03-24T02:17:37.387Z,9.23
2023-03-24T02:20:22.088Z,7.75
2023-03-24T02:23:10.206Z,6.78
2023-03-24T02:25:59.036Z,5.05
2023-03-24T02:28:47.352Z,5.85
2023-03-24T02:31:50.373Z,6.38
2023-03-24T02:34:36.156Z,7.35
2023-03-24T02:37:29.850Z,7.18
2023-03-24T02:40:19.170Z,7.85
2023-03-24T02:45:54.745Z,13.13
2023-03-24T02:48:37.901Z,9.25
2023-03-24T02:51:06.023Z,11.38
2023-03-24T02:54:06.163Z,7.05
2023-03-24T02:56:58.582Z,10.65
2023-03-24T03:00:01.832Z,8.07
2023-03-24T03:02:57.851Z,11.07
2023-03-24T03:05:35.808Z,13.32
2023-03-24T03:08:07.804Z,12.27
2023-03-24T03:10:42.963Z,6.13
2023-03-24T03:13:27.805Z,7.90
2023-03-24T03:15:59.922Z,6.05
2023-03-24T03:18:43.498Z,6.25
2023-03-24T03:21:16.038Z,5.20
2023-03-24T03:26:18.186Z,6.07
2023-03-24T03:28:58.039Z,6.38
2023-03-24T03:31:38.091Z,7.53
2023-03-24T03:34:08.903Z,5.47
2023-03-24T03:36:46.541Z,8.18
2023-03-24T03:39:31.202Z,6.45
2023-03-24T03:42:02.450Z,10.13
2023-03-24T03:44:31.802Z,12.00
2023-03-24T03:47:00.050Z,6.60
2023-03-24T03:49:38.536Z,6.45
2023-03-24T03:52:08.053Z,6.43
2023-03-24T03:54:37.844Z,4.95
2023-03-24T03:57:06.285Z,7.60
2023-03-24T03:59:51.491Z,13.43
2023-03-24T04:02:36.317Z,8.32
2023-03-24T04:05:37.060Z,8.50
2023-03-24T04:08:22.297Z,8.90
2023-03-24T04:11:13.610Z,8.75
2023-03-24T04:14:12.686Z,9.32
2023-03-24T04:17:08.956Z,22.10
2023-03-24T04:19:51.211Z,15.00
2023-03-24T04:22:38.434Z,21.73
2023-03-24T04:25:40.991Z,16.77
2023-03-24T04:28:20.418Z,9.27
2023-03-24T04:31:01.435Z,9.05
2023-03-24T04:34:04.132Z,11.82
2023-03-24T04:36:44.603Z,11.07
2023-03-24T04:39:29.668Z,13.15
2023-03-24T04:42:04.747Z,12.30
2023-03-24T04:44:33.700Z,6.82
2023-03-24T04:47:28.817Z,6.20
2023-03-24T04:50:11.610Z,8.65
2023-03-24T04:52:41.870Z,8.55
2023-03-24T04:55:32.419Z,6.78
2023-03-24T04:58:00.523Z,7.55
2023-03-24T05:00:28.376Z,8.57
2023-03-24T05:02:56.127Z,18.55
2023-03-24T05:05:26.979Z,8.77
2023-03-24T05:07:57.099Z,10.38
2023-03-24T05:10:24.833Z,8.88
2023-03-24T05:12:56.104Z,11.65
2023-03-24T05:15:43.968Z,13.32
2023-03-24T05:18:24.984Z,10.45
2023-03-24T05:20:53.840Z,46.67
2023-03-24T05:23:22.881Z,22.88
2023-03-24T05:25:51.374Z,21.38
2023-03-24T05:28:22.558Z,18.92
2023-03-24T05:30:51.466Z,16.73
2023-03-24T05:33:35.838Z,11.00
2023-03-24T05:36:04.546Z,14.13
2023-03-24T05:38:32.894Z,13.05
2023-03-24T05:41:01.881Z,13.82
2023-03-24T05:43:35.725Z,11.13
2023-03-24T05:46:11.200Z,16.15
2023-03-24T05:48:39.616Z,10.48
2023-03-24T05:51:11.897Z,22.73
2023-03-24T05:53:39.792Z,35.42
2023-03-24T05:56:14.790Z,32.85
2023-03-24T05:59:00.464Z,19.48
2023-03-24T06:01:48.423Z,18.90
2023-03-24T06:04:23.855Z,21.33
2023-03-24T06:06:56.176Z,16.85
2023-03-24T06:09:42.565Z,18.75
2023-03-24T06:12:13.878Z,19.40
2023-03-24T06:14:50.326Z,30.70
2023-03-24T06:17:21.467Z,20.02
2023-03-24T06:19:52.391Z,17.10
2023-03-24T06:22:49.864Z,19.92
2023-03-24T06:25:26.417Z,17.52
2023-03-24T06:28:26.195Z,15.00
2023-03-24T06:30:56.826Z,16.70
2023-03-24T06:33:32.501Z,14.95
2023-03-24T06:36:01.926Z,21.17
2023-03-24T06:38:31.302Z,20.77
2023-03-24T06:41:04.856Z,17.05
2023-03-24T06:43:33.290Z,16.92
2023-03-24T06:46:01.586Z,18.98
2023-03-24T06:48:30.446Z,17.98
2023-03-24T06:51:04.257Z,21.45
2023-03-24T06:53:32.298Z,18.40
2023-03-24T06:56:00.008Z,16.75
2023-03-24T06:58:35.057Z,21.42
2023-03-24T07:01:07.401Z,15.73
2023-03-24T07:03:38.726Z,14.23
2023-03-24T07:06:40.307Z,16.27
2023-03-24T07:09:15.309Z,15.23
2023-03-24T07:11:42.943Z,14.55
2023-03-24T07:14:11.032Z,14.07
2023-03-24T07:16:39.685Z,15.05
2023-03-24T07:19:27.704Z,15.77
2023-03-24T07:22:14.451Z,17.27
2023-03-24T07:25:04.654Z,16.85
2023-03-24T07:27:42.941Z,13.80
2023-03-24T07:30:11.577Z,18.48
2023-03-24T07:32:42.766Z,12.68
2023-03-24T07:35:12.522Z,15.32
2023-03-24T07:37:40.640Z,17.02
2023-03-24T07:40:13.327Z,16.17
2023-03-24T07:42:42.733Z,12.82
2023-03-24T07:45:33.806Z,13.50
2023-03-24T07:48:04.492Z,19.25
2023-03-24T07:50:36.280Z,13.98
2023-03-24T07:53:11.401Z,18.52
2023-03-24T07:55:39.235Z,14.02
2023-03-24T07:58:13.014Z,14.57
2023-03-24T08:00:48.287Z,14.07
2023-03-24T08:03:28.462Z,11.88
2023-03-24T08:06:18.229Z,13.95
2023-03-24T08:08:51.461Z,10.63
2023-03-24T08:11:19.067Z,11.02
2023-03-24T08:13:46.757Z,15.95
2023-03-24T08:16:14.481Z,12.60
2023-03-24T08:18:42.188Z,13.60
2023-03-24T08:21:09.893Z,14.32
2023-03-24T08:23:37.827Z,10.20
2023-03-24T08:26:07.226Z,12.40
2023-03-24T08:28:34.852Z,13.15
2023-03-24T08:31:02.649Z,12.40
2023-03-24T08:33:30.905Z,14.10
2023-03-24T08:36:00.959Z,12.75
2023-03-24T08:38:32.552Z,15.75
2023-03-24T08:41:02.806Z,11.27
2023-03-24T08:43:31.784Z,13.73
2023-03-24T08:46:01.195Z,11.35
2023-03-24T08:48:30.243Z,9.73
2023-03-24T08:50:57.907Z,13.77
2023-03-24T08:53:25.951Z,10.75
2023-03-24T08:55:53.814Z,10.82
2023-03-24T08:58:21.935Z,13.77
2023-03-24T09:00:49.860Z,12.63
2023-03-24T09:03:22.721Z,9.80
2023-03-24T09:05:51.254Z,9.27
2023-03-24T09:08:19.979Z,11.85
2023-03-24T09:10:47.789Z,16.35
2023-03-24T09:13:16.686Z,11.63
2023-03-24T09:15:53.745Z,10.57
2023-03-24T09:18:22.200Z,10.45
2023-03-24T09:20:51.186Z,13.65
2023-03-24T09:23:19.710Z,9.90
2023-03-24T09:25:50.325Z,11.50
2023-03-24T09:28:18.384Z,9.38
2023-03-24T09:30:46.313Z,9.73
2023-03-24T09:33:14.293Z,11.50
2023-03-24T09:35:42.099Z,11.32
2023-03-24T09:38:12.315Z,11.10
2023-03-24T09:40:42.666Z,12.63
2023-03-24T09:43:19.166Z,9.57
2023-03-24T09:45:58.809Z,12.20
2023-03-24T09:48:52.137Z,11.13
2023-03-24T09:51:24.178Z,9.07
2023-03-24T09:54:20.094Z,8.90
2023-03-24T09:56:51.239Z,6.88
2023-03-24T09:59:21.377Z,6.97
2023-03-24T10:01:49.844Z,10.80
2023-03-24T10:04:21.082Z,7.68
2023-03-24T10:06:53.533Z,12.40
2023-03-24T10:09:28.832Z,8.68
2023-03-24T10:12:26.138Z,11.80
2023-03-24T10:15:06.382Z,8.77
2023-03-24T10:17:58.350Z,11.63
2023-03-24T10:20:37.830Z,15.68
2023-03-24T10:23:34.725Z,7.20
2023-03-24T10:26:28.692Z,10.70
2023-03-24T10:29:28.940Z,6.95
2023-03-24T10:32:20.990Z,8.60
2023-03-24T10:34:55.666Z,11.50
2023-03-24T10:37:23.666Z,6.10
2023-03-24T10:39:52.103Z,6.68
2023-03-24T10:42:25.732Z,9.45
2023-03-24T10:44:53.757Z,8.32
2023-03-24T10:47:32.963Z,6.82
2023-03-24T10:50:12.595Z,8.95
2023-03-24T10:52:45.657Z,9.23
2023-03-24T10:55:19.711Z,9.35
2023-03-24T10:57:56.647Z,14.05
2023-03-24T11:00:29.877Z,11.43
2023-03-24T11:03:12.025Z,10.18
2023-03-24T11:05:42.007Z,11.02
2023-03-24T11:08:32.725Z,10.38
2023-03-24T11:11:00.678Z,9.60
2023-03-24T11:13:33.668Z,11.85
2023-03-24T11:16:09.778Z,7.80
2023-03-24T11:18:38.088Z,9.48
2023-03-24T11:21:07.159Z,11.82
2023-03-24T11:23:39.371Z,9.63
2023-03-24T11:26:08.688Z,8.20
2023-03-24T11:28:52.950Z,7.20
2023-03-24T11:31:32.138Z,7.78
2023-03-24T11:34:15.105Z,6.10
2023-03-24T11:36:51.007Z,7.30
2023-03-24T11:39:26.959Z,11.07
2023-03-24T11:42:16.637Z,8.00
2023-03-24T11:44:49.401Z,8.77
2023-03-24T11:47:38.572Z,8.90
2023-03-24T11:50:12.160Z,8.13
2023-03-24T11:52:49.222Z,12.75
2023-03-24T11:55:39.444Z,8.57
2023-03-24T11:58:17.117Z,10.27
2023-03-24T12:00:57.839Z,9.77
2023-03-24T12:03:44.495Z,9.55
2023-03-24T12:06:28.659Z,10.27
2023-03-24T12:09:32.849Z,8.02
2023-03-24T12:12:30.067Z,12.65
2023-03-24T12:15:32.991Z,9.07
2023-03-24T12:18:15.916Z,11.13
2023-03-24T12:21:12.263Z,10.55
2023-03-24T12:23:58.950Z,11.60
2023-03-24T12:26:31.729Z,8.68
2023-03-24T12:29:06.079Z,13.38
2023-03-24T12:31:40.414Z,8.90
2023-03-24T12:34:08.758Z,9.00
2023-03-24T12:36:37.290Z,8.45
2023-03-24T12:39:20.326Z,9.70
2023-03-24T12:41:58.267Z,10.30
2023-03-24T12:44:31.975Z,7.93
2023-03-24T12:47:18.820Z,8.32
2023-03-24T12:49:58.498Z,8.02
2023-03-24T12:52:41.058Z,9.68
2023-03-24T12:55:18.969Z,8.15
2023-03-24T12:58:06.496Z,14.77
2023-03-24T13:00:39.456Z,9.55
2023-03-24T13:03:14.612Z,8.52
2023-03-24T13:06:04.486Z,5.47
2023-03-24T13:08:42.536Z,8.20
2023-03-24T13:11:21.865Z,6.95
2023-03-24T13:13:59.697Z,7.38
2023-03-24T13:16:33.783Z,11.90
2023-03-24T13:19:03.390Z,10.93
2023-03-24T13:21:35.562Z,9.40
2023-03-24T13:26:41.225Z,7.25
2023-03-24T13:30:08.780Z,6.03
2023-03-24T13:33:06.154Z,8.32
2023-03-24T13:35:55.158Z,7.28
2023-03-24T13:38:32.617Z,7.15
2023-03-24T13:41:05.433Z,4.82
2023-03-24T13:43:34.644Z,8.13
2023-03-24T13:46:09.246Z,8.50
2023-03-24T13:48:41.742Z,5.50
2023-03-24T13:51:18.986Z,7.50
2023-03-24T13:53:51.238Z,7.85
2023-03-24T13:56:48.216Z,7.18
2023-03-24T13:59:33.989Z,5.40
2023-03-24T14:02:21.168Z,8.68
2023-03-24T14:05:02.461Z,6.43
2023-03-24T14:07:43.696Z,3.63
2023-03-24T14:10:14.685Z,4.05
2023-03-24T14:13:11.626Z,8.95
2023-03-24T14:15:46.534Z,9.15
2023-03-24T14:18:16.482Z,6.38
2023-03-24T14:21:10.992Z,8.82
2023-03-24T14:23:38.658Z,7.18
2023-03-24T14:26:15.036Z,7.45
2023-03-24T14:28:48.135Z,9.57
2023-03-24T14:31:16.265Z,8.63
2023-03-24T14:34:02.438Z,9.77
2023-03-24T14:36:35.275Z,3.35
2023-03-24T14:39:35.783Z,3.88
2023-03-24T14:42:26.261Z,5.78
2023-03-24T14:44:56.449Z,5.25
2023-03-24T14:47:33.093Z,4.07
2023-03-24T14:50:10.593Z,4.95
2023-03-24T14:52:43.777Z,14.10
2023-03-24T14:55:18.924Z,15.70
2023-03-24T14:57:56.465Z,4.03
2023-03-24T15:00:40.584Z,3.63
2023-03-24T15:03:24.254Z,4.30
2023-03-24T15:05:52.023Z,10.40
2023-03-24T15:08:26.843Z,3.80
2023-03-24T15:11:08.844Z,21.88
2023-03-24T15:13:51.305Z,15.52
2023-03-24T15:16:26.031Z,39.80
2023-03-24T15:19:20.785Z,20.65
2023-03-24T15:21:51.007Z,5.50
2023-03-24T15:24:21.826Z,2.72
2023-03-24T15:26:53.943Z,7.70
2023-03-24T15:31:51.334Z,6.43
2023-03-24T15:34:31.573Z,5.55
2023-03-24T15:37:05.385Z,4.43
2023-03-24T15:39:36.401Z,4.57
2023-03-24T15:42:09.303Z,3.35
2023-03-24T15:44:40.123Z,7.85
2023-03-24T15:47:22.771Z,2.30
2023-03-24T15:49:54.924Z,11.90
2023-03-24T15:52:35.293Z,14.00
2023-03-24T15:55:07.784Z,4.15
2023-03-24T15:57:43.435Z,2.78
2023-03-24T16:00:19.166Z,6.72
2023-03-24T16:02:51.618Z,4.88
2023-03-24T16:05:25.428Z,10.90
2023-03-24T16:08:01.482Z,10.18
2023-03-24T16:10:34.122Z,10.38
2023-03-24T16:13:20.360Z,18.40
2023-03-24T16:16:00.156Z,8.43
2023-03-24T16:18:34.622Z,7.22
2023-03-24T16:21:09.367Z,7.13
2023-03-24T16:23:37.010Z,5.38
2023-03-24T16:26:04.840Z,14.43
2023-03-24T16:28:33.916Z,20.65
2023-03-24T16:31:04.456Z,9.70
2023-03-24T16:33:33.361Z,16.90
2023-03-24T16:36:01.357Z,9.05
2023-03-24T16:38:29.193Z,7.78
2023-03-24T16:40:57.844Z,16.13
2023-03-24T16:43:27.496Z,47.70
2023-03-24T16:45:55.648Z,62.40
2023-03-24T16:48:23.333Z,102.97
2023-03-24T16:50:53.526Z,175.30
2023-03-24T16:53:21.573Z,91.15
2023-03-24T16:55:49.299Z,81.38
2023-03-24T16:58:17.328Z,82.63
2023-03-24T17:00:45.939Z,53.30
2023-03-24T17:03:14.172Z,37.95
2023-03-24T17:05:51.248Z,49.55
2023-03-24T17:08:19.597Z,59.17
2023-03-24T17:10:51.628Z,37.65
2023-03-24T17:13:25.935Z,88.60
2023-03-24T17:15:54.040Z,59.45
2023-03-24T17:18:22.029Z,47.47
2023-03-24T17:20:50.008Z,56.78
2023-03-24T17:23:22.127Z,36.25
2023-03-24T17:25:50.314Z,41.97
2023-03-24T17:28:18.848Z,17.40
2023-03-24T17:30:46.908Z,19.45
2023-03-24T17:33:16.740Z,22.40
2023-03-24T17:35:46.755Z,45.50
2023-03-24T17:38:16.720Z,17.33
2023-03-24T17:40:46.916Z,29.45
2023-03-24T17:43:15.160Z,20.33
2023-03-24T17:45:44.035Z,14.55
2023-03-24T17:48:12.240Z,12.02
2023-03-24T17:50:41.301Z,18.25
2023-03-24T17:53:10.134Z,23.27
2023-03-24T17:55:38.545Z,20.20
2023-03-24T17:58:07.772Z,21.02
2023-03-24T18:00:37.282Z,21.80
2023-03-24T18:03:05.571Z,20.25
2023-03-24T18:05:36.797Z,24.33
2023-03-24T18:08:06.030Z,22.13
2023-03-24T18:10:36.301Z,45.53
2023-03-24T18:13:06.661Z,46.00
2023-03-24T18:15:37.704Z,45.45
2023-03-24T18:18:06.551Z,29.58
2023-03-24T18:20:38.093Z,24.70
2023-03-24T18:23:07.027Z,12.30
2023-03-24T18:25:37.138Z,8.13
2023-03-24T18:28:06.783Z,11.65
2023-03-24T18:30:35.660Z,12.98
2023-03-24T18:33:04.162Z,11.70
2023-03-24T18:35:32.225Z,8.95
2023-03-24T18:38:01.116Z,6.10
2023-03-24T18:40:29.354Z,5.95
2023-03-24T18:42:58.084Z,5.35
2023-03-24T18:45:27.060Z,6.68
2023-03-24T18:47:55.723Z,8.07
2023-03-24T18:50:24.059Z,6.90
2023-03-24T18:52:52.844Z,9.93
2023-03-24T18:55:22.379Z,23.88
2023-03-24T18:57:51.190Z,15.88
2023-03-24T19:00:21.023Z,11.88
2023-03-24T19:02:49.840Z,11.93
2023-03-24T19:05:19.449Z,9.02
2023-03-24T19:07:49.866Z,6.15
2023-03-24T19:10:27.984Z,5.07
2023-03-24T19:12:57.243Z,19.23
2023-03-24T19:15:25.825Z,9.50
2023-03-24T19:17:55.852Z,5.63
2023-03-24T19:20:27.075Z,4.10
2023-03-24T19:22:56.832Z,6.45
2023-03-24T19:25:26.358Z,11.23
2023-03-24T19:27:55.017Z,32.40
2023-03-24T19:30:25.197Z,19.85
2023-03-24T19:32:54.273Z,14.48
2023-03-24T19:35:23.519Z,16.67
2023-03-24T19:37:54.761Z,33.38
2023-03-24T19:40:24.791Z,16.25
2023-03-24T19:42:53.513Z,15.23
2023-03-24T19:45:22.398Z,5.97
2023-03-24T19:47:51.163Z,5.53
2023-03-24T19:50:20.043Z,5.43
2023-03-24T19:52:48.378Z,8.95
2023-03-24T19:55:17.468Z,5.65
2023-03-24T19:57:46.176Z,9.90
2023-03-24T20:00:17.014Z,8.43
2023-03-24T20:02:46.621Z,6.28
2023-03-24T20:05:16.942Z,8.23
2023-03-24T20:07:47.984Z,11.85
2023-03-24T20:10:18.756Z,9.18
2023-03-24T20:12:47.739Z,10.55
2023-03-24T20:15:17.087Z,4.95
2023-03-24T20:17:46.698Z,8.43
2023-03-24T20:20:17.201Z,8.63
2023-03-24T20:22:47.676Z,10.15
2023-03-24T20:25:18.882Z,8.75
2023-03-24T20:27:48.452Z,10.82
2023-03-24T20:30:24.207Z,11.15
2023-03-24T20:32:57.547Z,8.85
2023-03-24T20:35:28.195Z,8.98
2023-03-24T20:37:57.143Z,10.15
2023-03-24T20:40:27.581Z,6.30
2023-03-24T20:42:57.649Z,8.82
2023-03-24T20:45:27.511Z,10.63
2023-03-24T20:47:56.316Z,10.63
2023-03-24T20:50:25.369Z,22.48
2023-03-24T20:52:56.381Z,15.85
2023-03-24T20:55:24.919Z,9.40
2023-03-24T20:57:54.664Z,10.23
2023-03-24T21:00:23.506Z,12.00
2023-03-24T21:02:53.713Z,11.80
2023-03-24T21:05:23.150Z,9.48
2023-03-24T21:07:51.322Z,7.82
2023-03-24T21:10:20.119Z,7.50
2023-03-24T21:12:52.808Z,7.93
2023-03-24T21:15:26.662Z,5.93
2023-03-24T21:17:56.038Z,9.00
2023-03-24T21:20:27.110Z,8.50
2023-03-24T21:22:55.802Z,11.85
2023-03-24T21:25:27.422Z,7.75
2023-03-24T21:27:56.851Z,8.48
2023-03-24T21:30:26.912Z,8.90
2023-03-24T21:32:57.285Z,6.20
2023-03-24T21:35:25.748Z,5.35
2023-03-24T21:37:54.014Z,5.03
2023-03-24T21:40:25.299Z,5.32
2023-03-24T21:42:54.135Z,4.97
2023-03-24T21:45:23.802Z,6.07
2023-03-24T21:47:55.342Z,6.20
2023-03-24T21:50:23.778Z,4.47
2023-03-24T21:52:53.637Z,4.20
2023-03-24T21:55:22.466Z,3.67
2023-03-24T21:57:51.164Z,4.05
2023-03-24T22:00:21.933Z,3.58
2023-03-24T22:02:51.967Z,2.65
2023-03-24T22:05:27.802Z,4.28
2023-03-24T22:07:56.206Z,2.97
2023-03-24T22:10:24.267Z,1.85
2023-03-24T22:12:53.291Z,2.53
2023-03-24T22:15:21.727Z,2.47
2023-03-24T22:17:50.422Z,2.38
2023-03-24T22:20:18.346Z,1.50
2023-03-24T22:22:46.243Z,3.83
2023-03-24T22:25:16.694Z,2.40
2023-03-24T22:27:45.098Z,2.42
2023-03-24T22:30:14.125Z,1.85
2023-03-24T22:32:42.050Z,1.63
2023-03-24T22:35:09.952Z,1.92
2023-03-24T22:37:37.672Z,1.23
2023-03-24T22:40:06.784Z,0.88
2023-03-24T22:42:34.478Z,0.63
2023-03-24T22:45:02.096Z,2.85
2023-03-24T22:47:29.928Z,0.73
2023-03-24T22:49:58.830Z,1.42
2023-03-24T22:52:28.068Z,0.50
2023-03-24T22:54:55.874Z,1.00
2023-03-24T22:57:23.454Z,0.70
2023-03-24T22:59:51.122Z,1.00
2023-03-24T23:02:24.495Z,2.65
2023-03-24T23:04:55.032Z,5.45
2023-03-24T23:07:22.892Z,4.88
2023-03-24T23:09:53.383Z,5.00
2023-03-24T23:12:22.598Z,6.40
2023-03-24T23:14:50.400Z,4.00
2023-03-24T23:17:18.106Z,5.07
2023-03-24T23:19:45.770Z,5.35
2023-03-24T23:22:13.508Z,4.28
2023-03-24T23:24:41.141Z,4.05
2023-03-24T23:27:08.759Z,5.70
2023-03-24T23:29:40.429Z,13.85
2023-03-24T23:32:08.585Z,10.32
2023-03-24T23:34:36.989Z,8.25
2023-03-24T23:37:04.913Z,7.75
2023-03-24T23:39:33.925Z,9.15
2023-03-24T23:42:01.550Z,9.70
2023-03-24T23:44:29.412Z,9.85
2023-03-24T23:46:57.781Z,8.43
2023-03-24T23:49:25.948Z,10.90
2023-03-24T23:51:53.563Z,9.43
2023-03-24T23:54:21.251Z,9.57
2023-03-24T23:56:51.568Z,7.10
2023-03-24T23:59:19.279Z,7.82
